createdAt,value
2023-05-08T00:01:30.578Z,12.13
2023-05-08T00:03:57.646Z,12.57
2023-05-08T00:06:24.688Z,12.40
2023-05-08T00:08:51.504Z,13.93
2023-05-08T00:11:18.298Z,13.75
2023-05-08T00:13:45.199Z,13.43
2023-05-08T00:16:12.777Z,13.07
2023-05-08T00:18:40.158Z,13.35
2023-05-08T00:21:07.312Z,11.50
2023-05-08T00:23:34.434Z,12.77
2023-05-08T00:26:01.329Z,11.57
2023-05-08T00:28:28.403Z,12.30
2023-05-08T00:30:55.344Z,12.80
2023-05-08T00:33:22.257Z,14.60
2023-05-08T00:35:49.111Z,13.38
2023-05-08T00:38:15.962Z,12.27
2023-05-08T00:40:43.485Z,12.63
2023-05-08T00:43:10.297Z,14.00
2023-05-08T00:45:39.866Z,13.05
2023-05-08T00:48:07.767Z,12.43
2023-05-08T00:50:35.299Z,14.53
2023-05-08T00:53:04.047Z,13.20
2023-05-08T00:55:32.482Z,12.90
2023-05-08T00:57:59.809Z,13.20
2023-05-08T01:00:27.006Z,17.33
2023-05-08T01:02:54.250Z,15.63
2023-05-08T01:05:21.261Z,13.70
2023-05-08T01:07:48.721Z,13.95
2023-05-08T01:10:16.417Z,18.10
2023-05-08T01:12:46.299Z,14.05
2023-05-08T01:15:27.282Z,17.03
2023-05-08T01:18:16.015Z,14.85
2023-05-08T01:20:42.781Z,16.25
2023-05-08T01:23:35.113Z,14.48
2023-05-08T01:26:36.044Z,16.15
2023-05-08T01:29:36.856Z,18.23
2023-05-08T01:32:36.297Z,16.88
2023-05-08T01:35:21.029Z,15.10
2023-05-08T01:38:14.952Z,14.15
2023-05-08T01:41:13.632Z,14.23
2023-05-08T01:43:55.963Z,18.70
2023-05-08T01:46:27.796Z,14.75
2023-05-08T01:49:05.260Z,13.80
2023-05-08T01:51:47.384Z,15.43
2023-05-08T01:54:22.719Z,14.48
2023-05-08T01:56:52.959Z,16.47
2023-05-08T01:59:22.493Z,16.75
2023-05-08T02:01:54.118Z,16.25
2023-05-08T02:04:22.018Z,17.20
2023-05-08T02:06:51.372Z,16.08
2023-05-08T02:09:20.006Z,17.47
2023-05-08T02:11:55.178Z,16.30
2023-05-08T02:14:23.662Z,14.80
2023-05-08T02:16:52.373Z,16.27
2023-05-08T02:19:23.356Z,15.23
2023-05-08T02:21:50.903Z,15.97
2023-05-08T02:24:18.668Z,16.85
2023-05-08T02:26:47.663Z,18.63
2023-05-08T02:29:15.452Z,15.07
2023-05-08T02:31:43.082Z,14.85
2023-05-08T02:34:10.965Z,14.77
2023-05-08T02:36:39.073Z,14.90
2023-05-08T02:39:08.384Z,15.18
2023-05-08T02:41:36.041Z,13.75
2023-05-08T02:44:04.130Z,15.35
2023-05-08T02:46:55.590Z,16.53
2023-05-08T02:49:23.534Z,15.35
2023-05-08T02:52:29.805Z,13.82
2023-05-08T02:55:11.670Z,15.20
2023-05-08T02:57:51.217Z,13.35
2023-05-08T03:00:24.604Z,14.13
2023-05-08T03:03:11.949Z,14.30
2023-05-08T03:05:43.260Z,35.78
2023-05-08T03:08:26.859Z,39.45
2023-05-08T03:10:57.985Z,46.47
2023-05-08T03:13:28.023Z,20.50
2023-05-08T03:15:58.730Z,68.57
2023-05-08T03:18:34.922Z,40.08
2023-05-08T03:21:06.389Z,56.08
2023-05-08T03:23:35.081Z,132.00
2023-05-08T03:26:03.195Z,87.77
2023-05-08T03:28:31.894Z,95.07
2023-05-08T03:31:01.649Z,64.03
2023-05-08T03:33:30.636Z,48.45
2023-05-08T03:35:59.401Z,48.67
2023-05-08T03:38:26.821Z,36.80
2023-05-08T03:40:53.742Z,33.10
2023-05-08T03:43:21.639Z,20.02
2023-05-08T03:45:50.570Z,34.17
2023-05-08T03:48:20.152Z,39.10
2023-05-08T03:50:47.795Z,21.93
2023-05-08T03:53:14.684Z,20.42
2023-05-08T03:55:41.826Z,21.52
2023-05-08T03:58:29.178Z,40.10
2023-05-08T04:01:17.949Z,64.82
2023-05-08T04:03:47.974Z,43.97
2023-05-08T04:06:28.765Z,25.70
2023-05-08T04:09:10.818Z,24.00
2023-05-08T04:11:40.767Z,30.05
2023-05-08T04:14:13.485Z,35.22
2023-05-08T04:16:51.570Z,26.43
2023-05-08T04:19:27.630Z,18.52
2023-05-08T04:21:59.099Z,16.83
2023-05-08T04:24:28.886Z,14.80
2023-05-08T04:26:57.293Z,22.33
2023-05-08T04:29:25.338Z,15.23
2023-05-08T04:31:56.575Z,18.00
2023-05-08T04:34:25.015Z,25.77
2023-05-08T04:36:52.273Z,17.40
2023-05-08T04:39:20.073Z,19.77
2023-05-08T04:41:48.779Z,17.07
2023-05-08T04:44:15.701Z,22.58
2023-05-08T04:46:42.781Z,54.50
2023-05-08T04:49:10.117Z,204.88
2023-05-08T04:51:37.054Z,181.02
2023-05-08T04:54:04.234Z,143.70
2023-05-08T04:56:31.096Z,363.55
2023-05-08T04:58:57.941Z,336.88
2023-05-08T05:01:24.823Z,296.05
2023-05-08T05:03:51.611Z,429.35
2023-05-08T05:06:18.893Z,263.03
2023-05-08T05:08:45.638Z,346.73
2023-05-08T05:11:12.499Z,390.67
2023-05-08T05:13:39.367Z,272.92
2023-05-08T05:16:07.508Z,367.60
2023-05-08T05:18:34.457Z,415.33
2023-05-08T05:21:01.332Z,296.38
2023-05-08T05:23:29.780Z,206.82
2023-05-08T05:25:56.752Z,210.88
2023-05-08T05:28:23.723Z,188.80
2023-05-08T05:30:50.616Z,145.23
2023-05-08T05:33:18.028Z,149.25
2023-05-08T05:35:45.100Z,151.20
2023-05-08T05:38:11.981Z,58.15
2023-05-08T05:40:38.998Z,131.65
2023-05-08T05:43:06.062Z,63.07
2023-05-08T05:45:33.818Z,72.20
2023-05-08T05:48:01.463Z,64.25
2023-05-08T05:50:29.840Z,82.18
2023-05-08T05:52:57.818Z,64.95
2023-05-08T05:55:26.656Z,75.77
2023-05-08T05:57:54.257Z,75.97
2023-05-08T06:00:21.948Z,81.72
2023-05-08T06:02:53.417Z,86.20
2023-05-08T06:05:20.997Z,79.15
2023-05-08T06:07:47.763Z,86.73
2023-05-08T06:10:14.709Z,63.80
2023-05-08T06:12:41.929Z,69.03
2023-05-08T06:15:11.125Z,55.53
2023-05-08T06:17:38.251Z,56.65
2023-05-08T06:20:05.915Z,55.47
2023-05-08T06:22:32.763Z,64.93
2023-05-08T06:24:59.910Z,72.95
2023-05-08T06:27:27.312Z,57.13
2023-05-08T06:29:54.360Z,60.10
2023-05-08T06:32:21.488Z,61.87
2023-05-08T06:34:48.803Z,58.17
2023-05-08T06:37:15.842Z,60.05
2023-05-08T06:39:42.751Z,61.45
2023-05-08T06:42:09.894Z,64.35
2023-05-08T06:44:40.854Z,60.77
2023-05-08T06:47:08.550Z,67.03
2023-05-08T06:49:38.656Z,65.80
2023-05-08T06:52:05.630Z,60.40
2023-05-08T06:54:32.644Z,59.05
2023-05-08T06:56:59.392Z,59.47
2023-05-08T06:59:26.696Z,57.63
2023-05-08T07:01:53.608Z,58.53
2023-05-08T07:04:20.820Z,54.40
2023-05-08T07:06:47.697Z,61.00
2023-05-08T07:09:15.079Z,58.27
2023-05-08T07:11:42.341Z,55.78
2023-05-08T07:14:09.177Z,56.58
2023-05-08T07:16:36.422Z,57.85
2023-05-08T07:19:03.359Z,55.22
2023-05-08T07:21:30.662Z,58.40
2023-05-08T07:23:57.518Z,59.53
2023-05-08T07:26:24.356Z,55.35
2023-05-08T07:28:51.235Z,55.03
2023-05-08T07:31:18.206Z,55.50
2023-05-08T07:33:46.679Z,57.53
2023-05-08T07:36:13.928Z,56.33
2023-05-08T07:38:40.855Z,58.40
2023-05-08T07:41:08.380Z,58.15
2023-05-08T07:43:35.325Z,61.03
2023-05-08T07:46:02.219Z,61.83
2023-05-08T07:48:29.109Z,70.80
2023-05-08T07:50:56.469Z,62.30
2023-05-08T07:53:23.380Z,64.90
2023-05-08T07:55:50.415Z,66.25
2023-05-08T07:58:17.707Z,69.67
2023-05-08T08:00:44.733Z,68.15
2023-05-08T08:03:11.637Z,72.78
2023-05-08T08:05:39.728Z,62.75
2023-05-08T08:08:06.691Z,66.75
2023-05-08T08:10:34.099Z,71.80
2023-05-08T08:13:02.007Z,71.32
2023-05-08T08:15:29.088Z,69.82
2023-05-08T08:17:55.946Z,74.30
2023-05-08T08:20:23.212Z,70.47
2023-05-08T08:22:50.440Z,72.90
2023-05-08T08:25:18.060Z,74.88
2023-05-08T08:27:44.874Z,76.85
2023-05-08T08:30:16.672Z,77.05
2023-05-08T08:32:45.234Z,78.72
2023-05-08T08:35:12.622Z,77.60
2023-05-08T08:37:39.846Z,79.55
2023-05-08T08:40:07.443Z,83.82
2023-05-08T08:42:34.608Z,75.43
2023-05-08T08:45:01.818Z,75.53
2023-05-08T08:47:29.957Z,80.90
2023-05-08T08:49:58.936Z,76.10
2023-05-08T08:53:03.425Z,75.68
2023-05-08T08:55:31.066Z,77.35
2023-05-08T08:58:16.214Z,78.80
2023-05-08T09:00:43.395Z,81.20
2023-05-08T09:03:10.452Z,75.93
2023-05-08T09:05:38.623Z,79.63
2023-05-08T09:08:07.043Z,76.07
2023-05-08T09:10:35.264Z,75.97
2023-05-08T09:13:03.505Z,71.77
2023-05-08T09:15:34.686Z,74.03
2023-05-08T09:18:02.807Z,72.40
2023-05-08T09:20:30.520Z,72.93
2023-05-08T09:22:57.945Z,77.47
2023-05-08T09:25:24.915Z,75.30
2023-05-08T09:27:51.792Z,74.50
2023-05-08T09:30:18.652Z,74.65
2023-05-08T09:32:45.936Z,74.70
2023-05-08T09:35:13.340Z,70.68
2023-05-08T09:37:43.235Z,73.53
2023-05-08T09:40:15.355Z,69.05
2023-05-08T09:42:42.564Z,71.38
2023-05-08T09:45:10.139Z,69.88
2023-05-08T09:47:40.329Z,71.78
2023-05-08T09:50:08.516Z,68.30
2023-05-08T09:52:39.434Z,65.82
2023-05-08T09:55:08.645Z,69.43
2023-05-08T09:57:51.404Z,67.68
2023-05-08T10:00:18.412Z,64.63
2023-05-08T10:03:02.298Z,65.77
2023-05-08T10:05:34.830Z,68.85
2023-05-08T10:08:22.425Z,66.45
2023-05-08T10:10:49.932Z,70.55
2023-05-08T10:13:16.867Z,69.80
2023-05-08T10:15:45.129Z,73.27
2023-05-08T10:18:13.517Z,74.15
2023-05-08T10:20:44.467Z,75.15
2023-05-08T10:23:15.682Z,71.78
2023-05-08T10:25:45.691Z,72.22
2023-05-08T10:28:44.276Z,74.27
2023-05-08T10:31:17.375Z,75.60
2023-05-08T10:33:48.677Z,75.70
2023-05-08T10:36:16.532Z,75.93
2023-05-08T10:38:43.673Z,76.05
2023-05-08T10:41:13.948Z,73.00
2023-05-08T10:43:44.043Z,68.35
2023-05-08T10:46:38.126Z,65.25
2023-05-08T10:49:25.895Z,63.35
2023-05-08T10:52:06.936Z,62.83
2023-05-08T10:55:06.210Z,53.83
2023-05-08T10:57:33.182Z,56.42
2023-05-08T11:00:00.221Z,59.13
2023-05-08T11:02:32.710Z,54.15
2023-05-08T11:05:16.691Z,57.75
2023-05-08T11:07:59.917Z,54.53
2023-05-08T11:10:32.368Z,49.78
2023-05-08T11:12:59.964Z,52.50
2023-05-08T11:15:38.143Z,46.97
2023-05-08T11:18:09.057Z,47.33
2023-05-08T11:20:59.746Z,48.27
2023-05-08T11:23:36.595Z,44.67
2023-05-08T11:26:04.409Z,46.25
2023-05-08T11:28:37.956Z,46.17
2023-05-08T11:31:06.665Z,41.08
2023-05-08T11:33:37.946Z,42.47
2023-05-08T11:36:20.601Z,41.08
2023-05-08T11:39:15.630Z,37.63
2023-05-08T11:41:42.466Z,38.45
2023-05-08T11:44:15.427Z,41.65
2023-05-08T11:46:56.079Z,43.63
2023-05-08T11:49:29.147Z,44.13
2023-05-08T11:51:59.114Z,50.25
2023-05-08T11:54:29.244Z,43.72
2023-05-08T11:56:57.605Z,46.50
2023-05-08T11:59:24.658Z,42.53
2023-05-08T12:04:22.001Z,45.28
2023-05-08T12:06:51.435Z,44.58
2023-05-08T12:09:20.542Z,48.00
2023-05-08T12:11:47.405Z,50.37
2023-05-08T12:14:17.933Z,43.22
2023-05-08T12:16:44.850Z,44.60
2023-05-08T12:19:13.173Z,42.45
2023-05-08T12:21:47.636Z,39.33
2023-05-08T12:24:16.416Z,44.73
2023-05-08T12:26:44.397Z,39.78
2023-05-08T12:29:11.708Z,37.92
2023-05-08T12:31:38.763Z,36.00
2023-05-08T12:34:06.551Z,33.08
2023-05-08T12:36:37.797Z,35.00
2023-05-08T12:39:16.174Z,32.22
2023-05-08T12:41:46.671Z,28.08
2023-05-08T12:44:24.352Z,26.58
2023-05-08T12:46:53.086Z,27.13
2023-05-08T12:49:30.654Z,30.53
2023-05-08T12:52:06.678Z,28.95
2023-05-08T12:54:54.558Z,25.80
2023-05-08T12:57:22.816Z,27.77
2023-05-08T12:59:49.736Z,28.00
2023-05-08T13:02:19.106Z,27.33
2023-05-08T13:04:46.609Z,30.10
2023-05-08T13:07:14.100Z,28.90
2023-05-08T13:10:00.156Z,29.38
2023-05-08T13:12:27.127Z,28.20
2023-05-08T13:14:54.316Z,29.67
2023-05-08T13:17:21.442Z,28.55
2023-05-08T13:19:48.280Z,33.10
2023-05-08T13:22:15.045Z,29.52
2023-05-08T13:24:41.836Z,29.55
2023-05-08T13:27:08.635Z,31.67
2023-05-08T13:29:35.418Z,31.05
2023-05-08T13:32:02.380Z,30.10
2023-05-08T13:34:29.208Z,33.67
2023-05-08T13:36:56.285Z,31.88
2023-05-08T13:39:23.129Z,31.30
2023-05-08T13:41:49.849Z,32.95
2023-05-08T13:44:16.694Z,31.77
2023-05-08T13:46:50.020Z,31.42
2023-05-08T13:49:19.326Z,31.58
2023-05-08T13:51:49.193Z,30.33
2023-05-08T13:54:18.795Z,33.40
2023-05-08T13:56:48.376Z,29.58
2023-05-08T13:59:15.264Z,29.60
2023-05-08T14:01:42.176Z,31.92
2023-05-08T14:04:09.254Z,29.60
2023-05-08T14:06:36.357Z,30.50
2023-05-08T14:09:03.521Z,28.17
2023-05-08T14:11:30.508Z,30.38
2023-05-08T14:13:57.616Z,30.73
2023-05-08T14:16:24.488Z,32.43
2023-05-08T14:18:51.551Z,31.10
2023-05-08T14:21:18.541Z,33.63
2023-05-08T14:23:45.459Z,32.35
2023-05-08T14:26:12.272Z,32.85
2023-05-08T14:28:39.053Z,31.67
2023-05-08T14:31:06.299Z,32.17
2023-05-08T14:33:33.205Z,32.20
2023-05-08T14:36:00.859Z,30.48
2023-05-08T14:38:27.666Z,30.77
2023-05-08T14:40:54.560Z,32.10
2023-05-08T14:43:22.387Z,32.80
2023-05-08T14:45:49.817Z,31.77
2023-05-08T14:48:17.374Z,35.10
2023-05-08T14:50:44.342Z,35.05
2023-05-08T14:53:11.604Z,34.70
2023-05-08T14:55:39.719Z,34.50
2023-05-08T14:58:07.084Z,38.53
2023-05-08T15:00:33.967Z,36.50
2023-05-08T15:03:00.898Z,41.15
2023-05-08T15:05:27.840Z,47.73
2023-05-08T15:07:56.005Z,48.97
2023-05-08T15:10:23.872Z,59.60
2023-05-08T15:12:50.903Z,62.58
2023-05-08T15:15:17.747Z,68.13
2023-05-08T15:17:44.511Z,77.37
2023-05-08T15:20:11.483Z,73.22
2023-05-08T15:22:38.400Z,77.43
2023-05-08T15:25:05.927Z,80.43
2023-05-08T15:27:33.048Z,89.60
2023-05-08T15:30:00.346Z,84.13
2023-05-08T15:32:27.457Z,81.43
2023-05-08T15:34:54.476Z,83.35
2023-05-08T15:37:21.389Z,84.85
2023-05-08T15:39:49.718Z,86.22
2023-05-08T15:42:16.657Z,84.17
2023-05-08T15:44:54.450Z,87.57
2023-05-08T15:47:23.462Z,86.85
2023-05-08T15:49:51.060Z,83.85
2023-05-08T15:52:19.564Z,82.15
2023-05-08T15:54:47.202Z,83.33
2023-05-08T15:57:14.121Z,75.97
2023-05-08T15:59:41.216Z,78.85
2023-05-08T16:02:08.611Z,78.15
2023-05-08T16:04:35.775Z,73.47
2023-05-08T16:07:02.794Z,69.10
2023-05-08T16:09:29.533Z,65.38
2023-05-08T16:11:56.444Z,61.92
2023-05-08T16:14:23.259Z,59.83
2023-05-08T16:16:50.014Z,51.17
2023-05-08T16:19:16.986Z,50.60
2023-05-08T16:21:47.685Z,44.92
2023-05-08T16:24:14.815Z,43.83
2023-05-08T16:26:41.852Z,43.38
2023-05-08T16:29:08.690Z,43.67
2023-05-08T16:31:35.586Z,44.57
2023-05-08T16:34:02.463Z,40.67
2023-05-08T16:36:29.343Z,39.90
2023-05-08T16:38:56.160Z,41.95
2023-05-08T16:41:23.056Z,37.83
2023-05-08T16:43:50.028Z,39.17
2023-05-08T16:46:20.763Z,37.47
2023-05-08T16:48:53.542Z,37.80
2023-05-08T16:51:20.443Z,36.67
2023-05-08T16:53:47.355Z,36.40
2023-05-08T16:56:14.207Z,33.60
2023-05-08T16:58:43.230Z,36.60
2023-05-08T17:01:11.739Z,32.85
2023-05-08T17:03:39.054Z,31.55
2023-05-08T17:06:09.530Z,35.13
2023-05-08T17:08:36.326Z,32.43
2023-05-08T17:11:03.352Z,34.10
2023-05-08T17:13:30.461Z,32.47
2023-05-08T17:15:57.915Z,30.08
2023-05-08T17:18:25.254Z,30.35
2023-05-08T17:20:52.165Z,29.30
2023-05-08T17:23:19.100Z,31.10
2023-05-08T17:25:45.947Z,32.22
2023-05-08T17:28:12.744Z,36.17
2023-05-08T17:30:39.588Z,31.15
2023-05-08T17:33:07.164Z,33.00
2023-05-08T17:35:34.301Z,31.73
2023-05-08T17:38:01.333Z,31.00
2023-05-08T17:40:28.974Z,30.52
2023-05-08T17:42:56.039Z,30.83
2023-05-08T17:45:22.989Z,29.27
2023-05-08T17:47:50.060Z,32.75
2023-05-08T17:50:17.291Z,33.30
2023-05-08T17:52:44.482Z,31.17
2023-05-08T17:55:11.501Z,31.85
2023-05-08T17:57:38.600Z,33.37
2023-05-08T18:00:06.349Z,35.60
2023-05-08T18:02:35.400Z,33.42
2023-05-08T18:05:02.421Z,33.08
2023-05-08T18:07:29.341Z,33.90
2023-05-08T18:09:56.193Z,34.20
2023-05-08T18:12:23.194Z,35.25
2023-05-08T18:14:50.572Z,31.23
2023-05-08T18:17:19.426Z,35.75
2023-05-08T18:19:46.840Z,34.67
2023-05-08T18:22:13.798Z,38.27
2023-05-08T18:24:40.924Z,34.60
2023-05-08T18:27:07.770Z,36.72
2023-05-08T18:29:34.713Z,35.67
2023-05-08T18:32:01.476Z,36.67
2023-05-08T18:34:28.384Z,36.00
2023-05-08T18:36:56.828Z,38.03
2023-05-08T18:39:24.910Z,37.50
2023-05-08T18:41:51.742Z,34.85
2023-05-08T18:44:18.573Z,35.95
2023-05-08T18:46:53.479Z,38.00
2023-05-08T18:49:23.054Z,35.67
2023-05-08T18:51:50.036Z,34.42
2023-05-08T18:54:17.022Z,35.95
2023-05-08T18:56:43.860Z,40.03
2023-05-08T18:59:10.629Z,34.27
2023-05-08T19:01:38.343Z,40.83
2023-05-08T19:04:05.333Z,37.17
2023-05-08T19:06:32.785Z,38.13
2023-05-08T19:08:59.560Z,38.60
2023-05-08T19:11:26.755Z,41.73
2023-05-08T19:13:53.551Z,39.30
2023-05-08T19:16:20.461Z,41.20
2023-05-08T19:18:47.319Z,42.25
2023-05-08T19:21:14.432Z,42.67
2023-05-08T19:23:41.264Z,39.67
2023-05-08T19:26:08.198Z,43.95
2023-05-08T19:28:35.188Z,42.95
2023-05-08T19:31:02.017Z,40.40
2023-05-08T19:33:29.098Z,42.67
2023-05-08T19:35:55.978Z,43.43
2023-05-08T19:38:22.858Z,44.20
2023-05-08T19:40:57.339Z,41.60
2023-05-08T19:43:25.962Z,43.13
2023-05-08T19:45:53.449Z,38.70
2023-05-08T19:48:20.576Z,42.63
2023-05-08T19:50:47.472Z,40.47
2023-05-08T19:53:14.509Z,42.88
2023-05-08T19:55:41.448Z,41.78
2023-05-08T19:58:08.280Z,41.92
2023-05-08T20:00:35.444Z,43.07
2023-05-08T20:03:02.485Z,42.53
2023-05-08T20:05:29.426Z,42.53
2023-05-08T20:07:56.296Z,44.83
2023-05-08T20:10:23.241Z,41.08
2023-05-08T20:12:50.055Z,43.13
2023-05-08T20:15:17.116Z,41.75
2023-05-08T20:17:44.057Z,43.20
2023-05-08T20:20:11.811Z,40.83
2023-05-08T20:22:38.837Z,38.97
2023-05-08T20:25:06.622Z,37.47
2023-05-08T20:27:33.412Z,36.83
2023-05-08T20:30:00.228Z,39.22
2023-05-08T20:32:27.069Z,37.58
2023-05-08T20:34:53.857Z,33.85
2023-05-08T20:37:20.703Z,35.53
2023-05-08T20:39:47.525Z,35.42
2023-05-08T20:42:14.336Z,32.83
2023-05-08T20:44:41.344Z,33.95
2023-05-08T20:47:08.227Z,33.60
2023-05-08T20:49:35.216Z,35.20
2023-05-08T20:52:02.060Z,35.95
2023-05-08T20:54:29.820Z,35.53
2023-05-08T20:56:56.636Z,35.65
2023-05-08T20:59:23.563Z,37.47
2023-05-08T21:01:50.498Z,36.07
2023-05-08T21:04:17.868Z,37.22
2023-05-08T21:06:44.732Z,34.55
2023-05-08T21:09:11.526Z,35.40
2023-05-08T21:11:38.366Z,38.17
2023-05-08T21:14:05.282Z,35.77
2023-05-08T21:16:32.323Z,36.85
2023-05-08T21:18:59.137Z,40.10
2023-05-08T21:21:25.911Z,39.92
2023-05-08T21:23:53.375Z,42.67
2023-05-08T21:26:23.387Z,38.73
2023-05-08T21:28:52.372Z,37.28
2023-05-08T21:31:19.444Z,38.92
2023-05-08T21:33:46.295Z,38.83
2023-05-08T21:36:13.117Z,41.58
2023-05-08T21:38:41.818Z,39.30
2023-05-08T21:41:09.020Z,39.70
2023-05-08T21:43:36.369Z,39.95
2023-05-08T21:46:07.548Z,42.35
2023-05-08T21:48:34.914Z,41.47
2023-05-08T21:51:01.944Z,42.07
2023-05-08T21:53:28.904Z,39.35
2023-05-08T21:55:55.932Z,42.50
2023-05-08T21:58:22.901Z,43.47
2023-05-08T22:00:51.949Z,42.42
2023-05-08T22:03:18.861Z,45.33
2023-05-08T22:05:45.875Z,46.92
2023-05-08T22:08:12.807Z,44.95
2023-05-08T22:10:39.754Z,45.35
2023-05-08T22:13:07.516Z,46.80
2023-05-08T22:15:34.726Z,47.53
2023-05-08T22:18:02.915Z,44.05
2023-05-08T22:20:30.234Z,46.30
2023-05-08T22:22:57.054Z,45.55
2023-05-08T22:25:25.342Z,48.78
2023-05-08T22:27:52.522Z,47.43
2023-05-08T22:30:19.331Z,47.45
2023-05-08T22:32:56.597Z,47.72
2023-05-08T22:35:25.383Z,46.20
2023-05-08T22:37:53.453Z,49.38
2023-05-08T22:40:21.728Z,49.23
2023-05-08T22:42:50.250Z,49.15
2023-05-08T22:45:17.410Z,49.75
2023-05-08T22:47:44.532Z,50.58
2023-05-08T22:50:11.916Z,50.17
2023-05-08T22:52:39.927Z,49.93
2023-05-08T22:55:07.800Z,49.72
2023-05-08T22:57:34.588Z,51.08
2023-05-08T23:00:01.700Z,50.55
2023-05-08T23:02:33.203Z,49.35
2023-05-08T23:05:00.465Z,48.57
2023-05-08T23:07:28.318Z,49.55
2023-05-08T23:09:55.214Z,50.85
2023-05-08T23:12:22.193Z,47.25
2023-05-08T23:14:48.985Z,54.35
2023-05-08T23:17:16.017Z,51.50
2023-05-08T23:19:42.947Z,50.55
2023-05-08T23:22:10.292Z,47.88
2023-05-08T23:24:37.472Z,53.67
2023-05-08T23:27:04.443Z,55.08
2023-05-08T23:29:31.303Z,53.73
2023-05-08T23:31:58.203Z,52.28
2023-05-08T23:34:25.345Z,52.17
2023-05-08T23:36:52.409Z,51.38
2023-05-08T23:39:19.267Z,51.63
2023-05-08T23:41:46.123Z,50.63
2023-05-08T23:44:13.006Z,52.60
2023-05-08T23:46:39.907Z,53.85
2023-05-08T23:49:07.006Z,51.50
2023-05-08T23:51:33.859Z,53.38
2023-05-08T23:54:01.060Z,52.47
2023-05-08T23:56:27.921Z,57.15
2023-05-08T23:58:54.730Z,55.85
